Time;durP1;ratioP1;P1;durP2;ratioP2;P2;SDS_P1;SDS_P2;PMS_P1;PMS_P2;Temp;Humidity;BMP_temperature;BMP_pressure;BME280_temperature;BME280_humidity;BME280_pressure;Samples;Min_cycle;Max_cycle;Signal;HPM_P1;HPM_P2
2024/04/24 00:00:22;;;;;;;4.28;2.90;;;333.20;2329.60;;;;;;5406414;26;20445;-78
2024/04/24 00:02:52;;;;;;;5.40;3.60;;;333.10;2329.60;;;;;;5390520;26;20004;-78
2024/04/24 00:05:17;;;;;;;5.07;3.30;;;333.10;2329.60;;;;;;5404428;26;20039;-77
2024/04/24 00:07:43;;;;;;;4.70;3.30;;;333.10;2329.60;;;;;;5400610;26;20010;-78
2024/04/24 00:10:09;;;;;;;5.70;3.50;;;333.10;2329.60;;;;;;5386591;26;20019;-78
2024/04/24 00:12:35;;;;;;;5.30;3.20;;;332.90;2329.60;;;;;;5395010;26;20439;-78
2024/04/24 00:15:00;;;;;;;6.40;3.00;;;333.00;2329.60;;;;;;5389037;26;20077;-78
2024/04/24 00:17:26;;;;;;;4.32;2.58;;;333.00;2329.60;;;;;;5409273;26;20014;-77
2024/04/24 00:19:52;;;;;;;3.95;2.72;;;333.10;2329.60;;;;;;5394911;26;20010;-78
2024/04/24 00:22:18;;;;;;;6.07;3.38;;;333.00;2329.60;;;;;;5385710;26;20004;-77
2024/04/24 00:24:44;;;;;;;5.50;3.30;;;333.00;2329.60;;;;;;5389409;26;20012;-78
2024/04/24 00:27:09;;;;;;;5.53;3.33;;;333.00;2329.60;;;;;;5390296;26;20004;-78
2024/04/24 00:29:35;;;;;;;7.18;3.97;;;333.10;2329.60;;;;;;5397430;26;20078;-78
2024/04/24 00:32:05;;;;;;;6.28;4.00;;;333.00;2329.60;;;;;;5399400;26;20022;-78
2024/04/24 00:34:31;;;;;;;6.53;3.97;;;333.00;2329.60;;;;;;5392593;26;20011;-78
2024/04/24 00:36:57;;;;;;;6.28;3.60;;;333.00;2329.60;;;;;;5389743;26;20004;-79
2024/04/24 00:39:23;;;;;;;5.22;3.58;;;333.00;2329.60;;;;;;5385986;26;19999;-77
2024/04/24 00:41:49;;;;;;;7.18;3.47;;;333.00;2329.60;;;;;;5390570;26;20011;-77
2024/04/24 00:44:14;;;;;;;5.15;3.08;;;332.90;2329.60;;;;;;5390280;26;20439;-78
2024/04/24 00:46:42;;;;;;;5.22;3.00;;;333.00;2329.60;;;;;;5403724;26;20008;-77
2024/04/24 00:49:09;;;;;;;7.95;3.45;;;333.00;2329.60;;;;;;5395521;26;20000;-78
2024/04/24 00:51:37;;;;;;;6.95;3.80;;;333.00;2329.60;;;;;;5390732;26;20424;-78
2024/04/24 00:54:04;;;;;;;4.65;2.97;;;333.00;2329.60;;;;;;5397982;26;20000;-78
2024/04/24 00:56:30;;;;;;;5.03;3.20;;;333.00;2329.60;;;;;;5418411;26;20005;-78
2024/04/24 00:58:57;;;;;;;7.05;3.65;;;333.00;2329.60;;;;;;5387173;26;20448;-77
2024/04/24 01:01:24;;;;;;;4.65;3.20;;;333.00;2329.60;;;;;;5407640;26;20015;-77
2024/04/24 01:03:49;;;;;;;6.65;3.42;;;332.90;2329.60;;;;;;5401649;26;20018;-77
2024/04/24 01:06:15;;;;;;;5.15;2.75;;;332.90;2329.60;;;;;;5390221;26;19996;-77
2024/04/24 01:08:41;;;;;;;5.07;3.47;;;332.90;2329.60;;;;;;5416196;26;20370;-77
2024/04/24 01:11:07;;;;;;;5.60;3.55;;;332.90;2329.60;;;;;;5389300;26;20019;-78
2024/04/24 01:13:33;;;;;;;7.78;4.55;;;332.90;2329.60;;;;;;5401448;26;20461;-78
2024/04/24 01:16:04;;;;;;;8.15;4.63;;;332.80;2329.60;;;;;;5396589;26;20359;-78
2024/04/24 01:18:31;;;;;;;9.43;4.90;;;332.80;2329.60;;;;;;5406531;26;19996;-78
2024/04/24 01:20:59;;;;;;;8.10;5.40;;;332.80;2329.60;;;;;;5401521;26;20074;-77
2024/04/24 01:23:56;;;;;;;6.82;4.82;;;332.80;2329.60;;;;;;5391770;26;20440;-77
2024/04/24 01:26:47;;;;;;;8.13;5.03;;;332.80;2329.60;;;;;;5414226;26;20007;-77
2024/04/24 01:29:14;;;;;;;8.63;4.93;;;332.80;2329.60;;;;;;5407873;26;20463;-77
2024/04/24 01:31:40;;;;;;;6.63;5.00;;;332.80;2329.60;;;;;;5395971;26;20493;-78
2024/04/24 01:34:06;;;;;;;7.68;4.90;;;308.10;2304.00;;;;;;5391173;26;20008;-78
2024/04/24 01:36:32;;;;;;;6.18;4.53;;;308.10;2304.00;;;;;;5407430;26;20024;-78
2024/04/24 01:38:57;;;;;;;7.68;4.85;;;308.10;2304.00;;;;;;5404675;26;20006;-77
2024/04/24 01:41:23;;;;;;;7.45;5.03;;;308.00;2304.00;;;;;;5390639;26;20011;-77
2024/04/24 01:43:49;;;;;;;7.38;5.15;;;308.00;2304.00;;;;;;5395251;26;20004;-78
2024/04/24 01:46:15;;;;;;;8.25;5.30;;;308.00;2304.00;;;;;;5402088;26;20014;-78
2024/04/24 01:48:41;;;;;;;7.70;5.03;;;308.00;2304.00;;;;;;5393452;26;20008;-78
2024/04/24 01:51:07;;;;;;;8.45;4.93;;;307.90;2304.00;;;;;;5388473;26;20015;-77
2024/04/24 01:53:34;;;;;;;6.55;4.82;;;307.90;2304.00;;;;;;5383815;26;20004;-77
2024/04/24 01:55:59;;;;;;;8.93;4.95;;;307.80;2304.00;;;;;;5395004;26;19999;-77
2024/04/24 01:58:25;;;;;;;7.25;4.90;;;307.80;2304.00;;;;;;5408040;26;20017;-78
2024/04/24 02:00:51;;;;;;;7.05;4.82;;;307.80;2304.00;;;;;;5418993;26;20037;-78
2024/04/24 02:03:17;;;;;;;7.75;5.47;;;307.80;2304.00;;;;;;5419443;26;20004;-77
2024/04/24 02:05:43;;;;;;;8.23;5.07;;;307.90;2304.00;;;;;;5411272;26;19992;-77
2024/04/24 02:08:09;;;;;;;10.38;5.38;;;307.90;2304.00;;;;;;5382062;26;20004;-79
2024/04/24 02:10:35;;;;;;;7.57;5.65;;;307.90;2304.00;;;;;;5384326;26;20335;-78
2024/04/24 02:13:00;;;;;;;9.88;6.97;;;308.00;2304.00;;;;;;5411076;26;20000;-78
2024/04/24 02:15:26;;;;;;;11.27;6.80;;;308.00;2304.00;;;;;;5389649;26;20006;-78
2024/04/24 02:17:52;;;;;;;10.57;6.88;;;307.90;2304.00;;;;;;5417660;26;19999;-78
2024/04/24 02:20:18;;;;;;;13.05;7.47;;;307.90;2304.00;;;;;;5418487;26;20041;-78
2024/04/24 02:22:44;;;;;;;10.50;7.10;;;307.90;2304.00;;;;;;5411464;26;20036;-77
2024/04/24 02:27:54;;;;;;;12.07;7.88;;;308.00;2304.00;;;;;;5419176;26;20014;-77
2024/04/24 02:30:20;;;;;;;14.43;8.57;;;307.90;2304.00;;;;;;5416755;26;20080;-78
2024/04/24 02:32:46;;;;;;;13.18;8.93;;;308.00;2073.60;;;;;;5417085;26;20035;-77
2024/04/24 02:35:12;;;;;;;12.75;8.77;;;308.00;2304.00;;;;;;5419406;26;20455;-78
2024/04/24 02:37:38;;;;;;;18.42;11.05;;;307.90;2304.00;;;;;;5417327;26;20073;-77
2024/04/24 02:40:05;;;;;;;14.40;10.63;;;307.90;2304.00;;;;;;5417872;26;20396;-78
2024/04/24 02:42:31;;;;;;;15.13;10.52;;;307.90;2304.00;;;;;;5416898;26;20093;-78
2024/04/24 02:44:56;;;;;;;15.52;10.57;;;307.90;2304.00;;;;;;5419055;26;19999;-78
2024/04/24 02:47:22;;;;;;;24.38;12.82;;;307.90;2304.00;;;;;;5418683;26;19995;-78
2024/04/24 02:49:48;;;;;;;18.20;12.00;;;307.90;2304.00;;;;;;5419004;26;20007;-78
2024/04/24 02:52:14;;;;;;;18.88;12.75;;;307.90;2304.00;;;;;;5418785;26;20028;-77
2024/04/24 02:54:40;;;;;;;21.67;15.32;;;307.90;2304.00;;;;;;5417217;26;20003;-78
2024/04/24 02:57:06;;;;;;;22.40;13.80;;;308.00;2304.00;;;;;;5416362;26;19995;-78
2024/04/24 02:59:31;;;;;;;21.17;14.85;;;308.00;2304.00;;;;;;5417955;26;20003;-78
2024/04/24 03:01:57;;;;;;;23.65;15.60;;;308.10;2304.00;;;;;;5417969;26;20516;-77
2024/04/24 03:04:23;;;;;;;23.95;15.90;;;308.10;2304.00;;;;;;5416357;26;20394;-77
2024/04/24 03:06:49;;;;;;;23.17;16.50;;;308.10;2304.00;;;;;;5415676;26;19992;-77
2024/04/24 03:09:15;;;;;;;21.83;15.90;;;332.80;2278.40;;;;;;5416954;26;20015;-77
2024/04/24 03:11:41;;;;;;;23.48;16.38;;;332.80;2329.60;;;;;;5418217;26;20011;-77
2024/04/24 03:14:07;;;;;;;24.52;16.50;;;332.80;2329.60;;;;;;5416228;26;20332;-78
2024/04/24 03:16:33;;;;;;;24.13;16.33;;;332.80;2329.60;;;;;;5418234;26;20024;-78
2024/04/24 03:18:59;;;;;;;25.00;16.40;;;332.80;2329.60;;;;;;5416523;26;20462;-78
2024/04/24 03:21:25;;;;;;;26.65;17.73;;;332.90;2329.60;;;;;;5416499;26;20006;-78
2024/04/24 03:23:51;;;;;;;28.20;18.88;;;332.90;2329.60;;;;;;5416147;26;19999;-78
2024/04/24 03:26:17;;;;;;;27.83;18.10;;;332.80;2329.60;;;;;;5410785;26;20005;-78
2024/04/24 03:28:43;;;;;;;26.85;18.25;;;332.80;2329.60;;;;;;5417169;26;20016;-77
2024/04/24 03:31:10;;;;;;;30.88;21.65;;;332.80;2329.60;;;;;;5417604;26;19999;-78
2024/04/24 03:33:36;;;;;;;31.23;21.50;;;332.80;2329.60;;;;;;5410674;26;20447;-78
2024/04/24 03:36:02;;;;;;;36.25;22.67;;;332.80;2329.60;;;;;;5424332;26;20000;-78
2024/04/24 03:38:28;;;;;;;35.03;23.80;;;332.80;2329.60;;;;;;5418012;26;20419;-77
2024/04/24 03:40:53;;;;;;;37.65;23.40;;;332.90;2329.60;;;;;;5418073;26;20003;-78
2024/04/24 03:43:20;;;;;;;38.15;24.85;;;332.90;2329.60;;;;;;5416040;26;20010;-78
2024/04/24 03:45:45;;;;;;;38.45;24.27;;;332.80;2329.60;;;;;;5411250;26;20545;-77
2024/04/24 03:48:14;;;;;;;42.08;24.85;;;332.80;2329.60;;;;;;5418307;26;19991;-78
2024/04/24 03:50:40;;;;;;;41.25;25.25;;;332.80;2329.60;;;;;;5412664;26;20349;-75
2024/04/24 03:53:06;;;;;;;43.90;25.70;;;332.80;2329.60;;;;;;5407045;26;20045;-76
2024/04/24 03:55:32;;;;;;;37.00;24.38;;;332.80;2329.60;;;;;;5417230;26;20010;-76
2024/04/24 03:57:58;;;;;;;44.47;27.60;;;332.80;2329.60;;;;;;5393713;26;20000;-77
2024/04/24 04:00:23;;;;;;;39.45;26.70;;;332.80;2278.40;;;;;;5415492;26;20443;-76
2024/04/24 04:02:49;;;;;;;44.47;28.30;;;332.80;2329.60;;;;;;5415528;26;20004;-78
2024/04/24 04:05:15;;;;;;;42.92;27.15;;;332.80;2329.60;;;;;;5417557;26;20003;-76
2024/04/24 04:07:41;;;;;;;44.88;26.92;;;332.80;2329.60;;;;;;5417425;26;20003;-77
2024/04/24 04:10:07;;;;;;;45.92;27.58;;;332.90;2329.60;;;;;;5403013;26;20072;-77
2024/04/24 04:12:32;;;;;;;46.80;28.58;;;332.90;2329.60;;;;;;5394690;26;20008;-78
2024/04/24 04:14:58;;;;;;;44.13;27.10;;;332.80;2329.60;;;;;;5395292;26;20011;-78
2024/04/24 04:17:24;;;;;;;45.90;27.75;;;332.90;2329.60;;;;;;5401054;26;19996;-77
2024/04/24 04:19:50;;;;;;;45.10;28.02;;;332.90;2329.60;;;;;;5402417;26;20626;-78
2024/04/24 04:22:16;;;;;;;54.08;32.17;;;332.90;2329.60;;;;;;5398996;26;20003;-77
2024/04/24 04:24:41;;;;;;;46.97;29.15;;;333.00;2329.60;;;;;;5395590;26;20044;-79
2024/04/24 04:27:08;;;;;;;45.40;28.25;;;333.00;2329.60;;;;;;5397996;26;20012;-79
2024/04/24 04:29:34;;;;;;;45.80;30.17;;;333.00;2329.60;;;;;;5404881;26;19999;-78
2024/04/24 04:31:59;;;;;;;47.50;30.25;;;333.00;2329.60;;;;;;5415027;26;20500;-77
2024/04/24 04:34:25;;;;;;;46.88;29.13;;;333.10;2329.60;;;;;;5397362;26;20027;-77
2024/04/24 04:36:51;;;;;;;45.78;29.27;;;333.00;2329.60;;;;;;5397515;26;20019;-76
2024/04/24 04:39:17;;;;;;;50.22;28.55;;;333.00;2329.60;;;;;;5412709;26;20015;-76
2024/04/24 04:41:43;;;;;;;48.22;29.50;;;333.00;2329.60;;;;;;5401586;26;19993;-76
2024/04/24 04:44:08;;;;;;;51.05;30.88;;;333.00;2329.60;;;;;;5402234;26;20421;-76
2024/04/24 04:46:34;;;;;;;48.40;28.52;;;333.00;2329.60;;;;;;5402179;26;20017;-77
2024/04/24 04:49:00;;;;;;;53.30;30.23;;;333.00;2329.60;;;;;;5395564;26;20074;-77
2024/04/24 04:51:26;;;;;;;62.15;33.03;;;333.10;2329.60;;;;;;5411021;26;19999;-78
2024/04/24 04:53:52;;;;;;;57.65;33.10;;;333.10;2329.60;;;;;;5403433;26;19999;-77
2024/04/24 04:56:18;;;;;;;52.85;32.90;;;333.20;2329.60;;;;;;5393222;26;20004;-76
2024/04/24 04:58:44;;;;;;;53.88;32.22;;;333.30;2329.60;;;;;;5402320;26;19996;-77
2024/04/24 05:01:13;;;;;;;55.15;32.83;;;333.20;2329.60;;;;;;5410504;26;20044;-78
2024/04/24 05:03:39;;;;;;;53.50;31.70;;;333.20;2329.60;;;;;;5395157;26;20059;-78
2024/04/24 05:06:04;;;;;;;51.30;31.10;;;333.10;2329.60;;;;;;5408354;26;20069;-77
2024/04/24 05:08:30;;;;;;;56.05;34.00;;;333.10;2329.60;;;;;;5384481;26;20003;-77
2024/04/24 05:10:56;;;;;;;51.28;31.45;;;333.00;2329.60;;;;;;5391874;26;20016;-77
2024/04/24 05:13:22;;;;;;;58.45;33.95;;;333.10;2329.60;;;;;;5389834;26;20074;-77
2024/04/24 05:15:48;;;;;;;50.78;31.85;;;333.10;1945.60;;;;;;5393166;26;20020;-77
2024/04/24 05:18:14;;;;;;;50.75;31.08;;;333.10;2329.60;;;;;;5399104;26;20011;-77
2024/04/24 05:20:39;;;;;;;49.65;28.85;;;333.00;2329.60;;;;;;5412486;26;20007;-78
2024/04/24 05:23:05;;;;;;;53.08;32.10;;;333.00;2329.60;;;;;;5392505;26;20124;-76
2024/04/24 05:25:36;;;;;;;52.58;31.85;;;333.10;2329.60;;;;;;5399811;26;20019;-77
2024/04/24 05:30:50;;;;;;;48.00;29.30;;;333.20;2329.60;;;;;;5399266;26;20011;-79
2024/04/24 05:33:16;;;;;;;47.72;27.70;;;333.20;2329.60;;;;;;5394787;26;20008;-83
2024/04/24 05:35:41;;;;;;;55.33;30.58;;;333.20;2329.60;;;;;;5390838;26;20331;-77
2024/04/24 05:38:07;;;;;;;56.33;31.67;;;333.20;2329.60;;;;;;5395024;26;20000;-79
2024/04/24 05:40:33;;;;;;;55.45;33.50;;;333.30;2329.60;;;;;;5409323;26;20000;-79
2024/04/24 05:42:59;;;;;;;50.85;30.33;;;333.30;2329.60;;;;;;5393726;26;20000;-78
2024/04/24 05:45:25;;;;;;;55.72;33.22;;;333.30;2329.60;;;;;;5391077;26;19996;-80
2024/04/24 05:47:51;;;;;;;57.17;34.17;;;333.30;2329.60;;;;;;5397996;26;20334;-77
2024/04/24 05:50:16;;;;;;;56.40;32.58;;;333.40;2329.60;;;;;;5403641;26;20000;-76
2024/04/24 05:52:42;;;;;;;51.10;30.95;;;333.30;2329.60;;;;;;5400908;26;20072;-78
2024/04/24 05:55:10;;;;;;;54.17;33.55;;;333.30;2329.60;;;;;;5389038;26;20004;-77
2024/04/24 05:57:36;;;;;;;57.60;35.35;;;333.20;2329.60;;;;;;5408272;26;20000;-77
2024/04/24 06:00:03;;;;;;;53.33;33.50;;;333.20;2329.60;;;;;;5388395;26;20439;-78
2024/04/24 06:02:29;;;;;;;53.13;31.83;;;333.30;2329.60;;;;;;5391801;26;20046;-77
2024/04/24 06:04:55;;;;;;;50.47;31.98;;;333.40;2329.60;;;;;;5394896;26;19992;-77
2024/04/24 06:07:21;;;;;;;48.83;30.38;;;333.40;2329.60;;;;;;5403018;26;20004;-80
2024/04/24 06:09:47;;;;;;;50.80;32.20;;;333.50;2329.60;;;;;;5397565;26;20011;-79
2024/04/24 06:12:13;;;;;;;49.33;31.30;;;333.60;2329.60;;;;;;5411976;26;20012;-79
2024/04/24 06:14:39;;;;;;;45.25;29.17;;;333.60;2329.60;;;;;;5411665;26;20085;-77
2024/04/24 06:17:05;;;;;;;50.70;29.58;;;333.60;2329.60;;;;;;5400282;26;20012;-77
2024/04/24 06:19:30;;;;;;;48.05;31.02;;;333.70;2329.60;;;;;;5406335;26;20003;-76
2024/04/24 06:21:56;;;;;;;50.85;30.83;;;333.70;2329.60;;;;;;5411566;26;20003;-77
2024/04/24 06:24:22;;;;;;;53.08;31.05;;;358.40;2329.60;;;;;;5402201;26;20104;-77
2024/04/24 06:26:48;;;;;;;56.60;33.60;;;358.40;2329.60;;;;;;5399452;26;20004;-78
2024/04/24 06:29:14;;;;;;;50.20;31.02;;;358.50;2329.60;;;;;;5393852;26;20458;-77
2024/04/24 06:31:39;;;;;;;41.92;26.13;;;358.50;2329.60;;;;;;5402936;26;20003;-78
2024/04/24 06:34:06;;;;;;;40.38;24.88;;;358.50;2329.60;;;;;;5388804;26;20008;-77
2024/04/24 06:36:32;;;;;;;32.42;23.85;;;358.50;2278.40;;;;;;5388280;26;20460;-78
2024/04/24 06:38:57;;;;;;;30.17;19.67;;;358.50;2329.60;;;;;;5409767;26;20068;-77
2024/04/24 06:41:23;;;;;;;38.70;22.83;;;358.50;2329.60;;;;;;5423925;26;19996;-77
2024/04/24 06:43:51;;;;;;;31.17;20.05;;;333.70;2329.60;;;;;;5405491;26;20012;-76
2024/04/24 06:46:17;;;;;;;27.63;19.00;;;333.70;1996.80;;;;;;5393697;26;20007;-78
2024/04/24 06:48:43;;;;;;;27.05;18.80;;;333.70;2329.60;;;;;;5387494;26;20344;-79
2024/04/24 06:51:09;;;;;;;27.88;18.35;;;333.70;2329.60;;;;;;5390698;26;20303;-79
2024/04/24 06:53:35;;;;;;;19.17;13.25;;;333.70;2329.60;;;;;;5392287;26;20475;-78
2024/04/24 06:56:03;;;;;;;19.90;13.18;;;333.70;2329.60;;;;;;5397325;26;20290;-79
2024/04/24 06:58:36;;;;;;;17.13;11.23;;;333.70;2329.60;;;;;;5387568;26;20472;-80
2024/04/24 07:01:03;;;;;;;17.40;10.18;;;358.50;2329.60;;;;;;5385900;26;20025;-77
2024/04/24 07:03:29;;;;;;;15.98;10.13;;;358.60;2329.60;;;;;;5399502;26;20008;-77
2024/04/24 07:05:55;;;;;;;17.40;10.20;;;358.70;2329.60;;;;;;5397794;26;20361;-78
2024/04/24 07:08:21;;;;;;;15.43;10.60;;;358.70;2329.60;;;;;;5413482;26;20002;-78
2024/04/24 07:10:47;;;;;;;14.70;9.60;;;358.70;2329.60;;;;;;5388877;26;20004;-78
2024/04/24 07:13:13;;;;;;;16.60;9.70;;;358.60;2329.60;;;;;;5390018;26;19992;-78
2024/04/24 07:15:42;;;;;;;14.07;9.32;;;358.50;2329.60;;;;;;5407476;26;20081;-78
2024/04/24 07:18:07;;;;;;;16.67;10.27;;;333.70;2329.60;;;;;;5396392;26;20071;-79
2024/04/24 07:20:33;;;;;;;15.50;9.73;;;333.70;2329.60;;;;;;5396488;26;19996;-78
2024/04/24 07:22:59;;;;;;;16.58;9.50;;;333.70;2329.60;;;;;;5386797;26;20012;-79
2024/04/24 07:25:25;;;;;;;17.02;11.18;;;333.70;2329.60;;;;;;5401001;26;20061;-80
2024/04/24 07:27:51;;;;;;;87.05;42.20;;;358.40;2329.60;;;;;;5401334;26;20007;-78
2024/04/24 07:30:19;;;;;;;18.05;12.77;;;358.50;2329.60;;;;;;5399320;26;20003;-79
2024/04/24 07:32:45;;;;;;;12.60;8.93;;;358.50;2329.60;;;;;;5390621;26;20011;-78
2024/04/24 07:35:11;;;;;;;13.18;8.15;;;358.40;2329.60;;;;;;5399631;26;20467;-79
2024/04/24 07:37:37;;;;;;;11.10;7.97;;;358.50;2329.60;;;;;;5385696;26;19996;-79
2024/04/24 07:40:03;;;;;;;15.90;8.75;;;358.90;2329.60;;;;;;5403996;26;20012;-77
2024/04/24 07:42:28;;;;;;;14.55;8.77;;;359.30;2329.60;;;;;;5398507;26;20342;-80
2024/04/24 07:44:54;;;;;;;12.30;8.25;;;359.30;2329.60;;;;;;5392694;26;20010;-80
2024/04/24 07:47:20;;;;;;;11.70;8.38;;;359.30;2329.60;;;;;;5407728;26;20011;-78
2024/04/24 07:49:46;;;;;;;21.00;11.02;;;384.00;2329.60;;;;;;5396728;26;20007;-79
2024/04/24 07:52:12;;;;;;;15.85;10.18;;;359.20;2329.60;;;;;;5384739;26;20051;-78
2024/04/24 07:54:38;;;;;;;21.75;13.10;;;359.10;2329.60;;;;;;5400909;26;19996;-79
2024/04/24 07:57:05;;;;;;;14.63;10.25;;;359.10;2329.60;;;;;;5406414;26;20013;-78
2024/04/24 07:59:31;;;;;;;13.45;8.77;;;359.10;2329.60;;;;;;5397585;26;19996;-78
2024/04/24 08:02:01;;;;;;;11.57;8.05;;;359.10;2329.60;;;;;;5391260;26;19992;-79
2024/04/24 08:04:27;;;;;;;11.93;7.68;;;359.00;2329.60;;;;;;5390323;26;19992;-78
2024/04/24 08:06:53;;;;;;;12.18;8.93;;;359.20;2329.60;;;;;;5396329;26;20459;-78
2024/04/24 08:09:19;;;;;;;10.32;7.30;;;384.30;2329.60;;;;;;5401084;26;20006;-79
2024/04/24 08:11:45;;;;;;;11.30;7.95;;;384.90;2329.60;;;;;;5405838;26;20462;-78
2024/04/24 08:14:11;;;;;;;10.95;7.60;;;409.90;2355.20;;;;;;5393508;26;20040;-77
2024/04/24 08:16:37;;;;;;;11.30;7.78;;;410.40;2355.20;;;;;;5390811;26;20011;-78
2024/04/24 08:19:02;;;;;;;10.20;7.68;;;435.30;2355.20;;;;;;5413662;26;20037;-77
2024/04/24 08:21:28;;;;;;;13.23;8.57;;;435.70;2355.20;;;;;;5383929;26;20430;-79
2024/04/24 08:23:54;;;;;;;12.48;8.45;;;435.70;2355.20;;;;;;5393694;26;20008;-77
2024/04/24 08:26:21;;;;;;;13.48;9.10;;;435.20;2355.20;;;;;;5396771;26;20011;-78
2024/04/24 08:28:47;;;;;;;13.52;8.77;;;410.40;2355.20;;;;;;5390743;26;20072;-77
2024/04/24 08:31:13;;;;;;;10.75;8.15;;;410.20;2355.20;;;;;;5388694;26;20323;-78
2024/04/24 08:33:39;;;;;;;12.38;7.88;;;409.90;2355.20;;;;;;5392886;26;20000;-78
2024/04/24 08:36:13;;;;;;;11.27;9.02;;;409.70;2355.20;;;;;;5395240;26;20325;-77
2024/04/24 08:38:40;;;;;;;16.23;12.27;;;409.60;2355.20;;;;;;5413212;26;20004;-78
2024/04/24 08:41:06;;;;;;;13.45;10.55;;;409.60;2355.20;;;;;;5401921;26;19996;-78
2024/04/24 08:43:35;;;;;;;13.45;8.25;;;384.90;2329.60;;;;;;5391799;26;20043;-77
2024/04/24 08:46:03;;;;;;;10.25;7.80;;;384.70;2329.60;;;;;;5401413;26;20003;-78
2024/04/24 08:48:30;;;;;;;11.25;8.63;;;384.70;2329.60;;;;;;5396415;26;19992;-76
2024/04/24 08:51:01;;;;;;;12.77;8.80;;;384.70;2329.60;;;;;;5399819;26;20403;-77
2024/04/24 08:53:32;;;;;;;12.25;8.20;;;409.70;2355.20;;;;;;5387188;26;19993;-76
2024/04/24 08:56:00;;;;;;;12.15;8.60;;;410.20;2355.20;;;;;;5396661;26;20026;-75
2024/04/24 08:58:30;;;;;;;9.90;8.10;;;410.00;2355.20;;;;;;5405345;26;20129;-76
2024/04/24 09:00:59;;;;;;;14.60;8.18;;;409.90;2355.20;;;;;;5411350;26;20013;-76
2024/04/24 09:03:28;;;;;;;13.27;7.53;;;409.80;2355.20;;;;;;5408746;26;20019;-76
2024/04/24 09:05:55;;;;;;;11.70;8.52;;;410.20;2355.20;;;;;;5404959;26;20012;-75
2024/04/24 09:08:23;;;;;;;9.95;7.70;;;435.50;2355.20;;;;;;5400723;26;20442;-76
2024/04/24 09:10:49;;;;;;;9.52;7.60;;;460.90;2380.80;;;;;;5412369;26;20031;-76
2024/04/24 09:13:16;;;;;;;10.80;8.27;;;461.50;2380.80;;;;;;5408102;26;20003;-76
2024/04/24 09:15:46;;;;;;;10.20;8.32;;;461.40;2380.80;;;;;;5402718;26;20003;-77
2024/04/24 09:18:13;;;;;;;9.98;7.80;;;461.60;2380.80;;;;;;5401366;26;20463;-76
2024/04/24 09:20:44;;;;;;;11.35;7.07;;;461.70;2380.80;;;;;;5406608;26;19996;-76
2024/04/24 09:23:14;;;;;;;9.75;6.70;;;461.50;2380.80;;;;;;5394789;26;20000;-77
2024/04/24 09:25:40;;;;;;;11.65;7.40;;;461.40;2380.80;;;;;;5404484;26;20036;-77
2024/04/24 09:28:06;;;;;;;9.43;6.85;;;461.00;2380.80;;;;;;5392513;26;20000;-78
2024/04/24 09:30:32;;;;;;;15.27;7.20;;;436.10;2355.20;;;;;;5395020;26;20035;-77
2024/04/24 09:32:58;;;;;;;9.40;6.75;;;460.80;2380.80;;;;;;5384301;26;20004;-76
2024/04/24 09:35:24;;;;;;;8.95;6.80;;;436.00;2355.20;;;;;;5394470;26;20014;-78
2024/04/24 09:37:53;;;;;;;12.73;7.25;;;461.20;2380.80;;;;;;5414809;26;20443;-77
2024/04/24 09:40:19;;;;;;;12.98;7.18;;;;;;;;;;5395895;26;20387;-77
2024/04/24 09:42:46;;;;;;;7.25;5.28;;;;;;;;;;5393241;26;20069;-77
2024/04/24 09:45:12;;;;;;;9.35;5.95;;;487.00;2380.80;;;;;;5391251;26;20606;-77
2024/04/24 09:47:45;;;;;;;9.10;5.95;;;487.10;2380.80;;;;;;5401862;26;20050;-79
2024/04/24 09:50:12;;;;;;;8.23;6.10;;;487.30;2380.80;;;;;;5388373;26;19996;-77
2024/04/24 09:52:38;;;;;;;9.18;6.07;;;487.00;2380.80;;;;;;5406657;26;20008;-76
2024/04/24 09:55:04;;;;;;;8.82;6.38;;;486.50;2380.80;;;;;;5416968;26;20450;-78
2024/04/24 09:57:38;;;;;;;11.68;7.00;;;487.00;2380.80;;;;;;5410301;26;20011;-77
2024/04/24 10:00:05;;;;;;;10.35;6.88;;;486.90;2380.80;;;;;;5388390;26;20011;-77
2024/04/24 10:02:37;;;;;;;8.52;6.63;;;486.60;2380.80;;;;;;5395979;26;20003;-76
2024/04/24 10:05:25;;;;;;;18.25;10.70;;;461.70;2380.80;;;;;;5404278;26;20004;-76
2024/04/24 10:08:02;;;;;;;10.63;8.10;;;461.40;2380.80;;;;;;5398271;26;20027;-76
2024/04/24 10:10:35;;;;;;;13.57;8.55;;;461.70;2380.80;;;;;;5399959;26;19996;-77
2024/04/24 10:13:03;;;;;;;14.70;7.72;;;486.40;2380.80;;;;;;5400720;26;20000;-77
2024/04/24 10:15:42;;;;;;;13.40;8.02;;;486.60;2380.80;;;;;;5425486;26;19996;-77
2024/04/24 10:18:09;;;;;;;11.05;8.35;;;486.50;2380.80;;;;;;5402515;26;20000;-78
2024/04/24 10:20:43;;;;;;;14.88;11.10;;;461.60;2380.80;;;;;;5394625;26;20008;-76
2024/04/24 10:23:09;;;;;;;25.75;14.57;;;461.40;2380.80;;;;;;5393023;26;20029;-77
2024/04/24 10:25:35;;;;;;;32.08;17.85;;;486.80;2380.80;;;;;;5399055;26;20004;-77
2024/04/24 10:28:03;;;;;;;32.60;17.73;;;486.50;2380.80;;;;;;5400980;26;20014;-77
2024/04/24 10:30:30;;;;;;;26.42;15.40;;;486.50;2380.80;;;;;;5392972;26;20001;-77
2024/04/24 10:32:56;;;;;;;14.85;11.43;;;461.70;2380.80;;;;;;5407395;26;19999;-76
2024/04/24 10:35:27;;;;;;;15.90;12.45;;;486.40;2380.80;;;;;;5402528;26;20032;-76
2024/04/24 10:37:57;;;;;;;12.77;9.75;;;486.80;2380.80;;;;;;5403771;26;20042;-76
2024/04/24 10:40:27;;;;;;;10.73;8.75;;;512.10;2380.80;;;;;;5412883;26;19996;-77
2024/04/24 10:43:04;;;;;;;11.23;8.93;;;512.40;2380.80;;;;;;5400420;26;20003;-78
2024/04/24 10:45:39;;;;;;;12.10;9.05;;;512.20;2380.80;;;;;;5387916;26;20335;-77
2024/04/24 10:48:05;;;;;;;15.25;9.80;;;486.60;2380.80;;;;;;5400981;26;19996;-78
2024/04/24 10:50:35;;;;;;;14.40;8.68;;;461.60;2380.80;;;;;;5394327;26;20332;-77
2024/04/24 10:53:03;;;;;;;13.70;9.32;;;486.50;2380.80;;;;;;5384739;26;19997;-77
2024/04/24 10:55:29;;;;;;;14.32;10.25;;;487.10;2380.80;;;;;;5396255;26;20000;-77
2024/04/24 10:57:55;;;;;;;11.15;8.35;;;512.20;2380.80;;;;;;5407324;26;20040;-77
2024/04/24 11:00:22;;;;;;;13.15;9.13;;;512.10;2380.80;;;;;;5399499;26;20316;-77
2024/04/24 11:02:51;;;;;;;18.20;12.98;;;512.30;2304.00;;;;;;5400013;26;20019;-77
2024/04/24 11:05:19;;;;;;;12.57;10.48;;;512.80;2380.80;;;;;;5401514;26;20020;-77
2024/04/24 11:07:59;;;;;;;11.20;8.35;;;537.70;2380.80;;;;;;5390647;26;20028;-77
2024/04/24 11:10:25;;;;;;;10.55;8.63;;;537.70;2304.00;;;;;;5396786;26;19999;-77
2024/04/24 11:12:51;;;;;;;10.93;8.60;;;537.80;2380.80;;;;;;5392555;26;20327;-77
2024/04/24 11:15:22;;;;;;;13.15;8.30;;;512.40;2201.60;;;;;;5394397;26;20007;-77
2024/04/24 11:17:50;;;;;;;12.02;8.98;;;487.10;2380.80;;;;;;5385415;26;20016;-77
2024/04/24 11:20:17;;;;;;;11.93;8.77;;;;;;;;;;5400693;26;20011;-78
2024/04/24 11:22:42;;;;;;;15.65;9.40;;;486.50;2380.80;;;;;;5410555;26;20026;-77
2024/04/24 11:25:09;;;;;;;11.00;7.78;;;461.70;2380.80;;;;;;5415129;26;20408;-77
2024/04/24 11:27:35;;;;;;;14.05;10.10;;;461.70;2380.80;;;;;;5411970;26;20012;-78
2024/04/24 11:30:27;;;;;;;8.35;6.60;;;486.80;2380.80;;;;;;5396502;26;19996;-77
2024/04/24 11:32:54;;;;;;;8.60;6.32;;;487.20;2380.80;;;;;;5391308;26;20000;-77
2024/04/24 11:35:25;;;;;;;11.10;7.15;;;512.10;2227.20;;;;;;5402166;26;20001;-78
2024/04/24 11:37:52;;;;;;;12.77;7.70;;;512.70;2252.80;;;;;;5403153;26;19999;-78
2024/04/24 11:40:17;;;;;;;13.57;6.95;;;512.50;2227.20;;;;;;5406989;26;20015;-78
2024/04/24 11:42:48;;;;;;;10.88;6.32;;;512.80;2278.40;;;;;;5412990;26;20319;-78
2024/04/24 11:45:15;;;;;;;15.48;8.80;;;512.90;2176.00;;;;;;5391140;26;20032;-77
2024/04/24 11:47:41;;;;;;;8.13;6.47;;;537.70;2227.20;;;;;;5400189;26;20003;-78
2024/04/24 11:50:09;;;;;;;9.38;6.53;;;537.90;2176.00;;;;;;5401309;26;20008;-78
2024/04/24 11:52:38;;;;;;;9.50;5.70;;;538.00;2124.80;;;;;;5390239;26;20011;-77
2024/04/24 11:55:05;;;;;;;9.40;7.13;;;538.10;2099.20;;;;;;5402376;26;20017;-79
2024/04/24 11:57:35;;;;;;;10.60;6.93;;;538.10;2099.20;;;;;;5403232;26;20019;-87
2024/04/24 12:00:02;;;;;;;7.60;5.78;;;538.30;2048.00;;;;;;5387413;26;20004;-77
2024/04/24 12:02:31;;;;;;;10.05;6.55;;;538.10;2048.00;;;;;;5402488;26;19999;-78
2024/04/24 12:04:57;;;;;;;8.20;6.40;;;538.20;1971.20;;;;;;5393423;26;20011;-77
2024/04/24 12:07:28;;;;;;;8.50;6.60;;;538.30;1945.60;;;;;;5412483;26;20000;-79
2024/04/24 12:09:57;;;;;;;12.90;6.03;;;537.70;1920.00;;;;;;5404728;26;20019;-78
2024/04/24 12:12:23;;;;;;;8.15;6.13;;;537.60;1945.60;;;;;;5401692;26;19999;-78